createdAt,value
2019-05-03T00:02:04.583Z,12.60
2019-05-03T00:04:33.429Z,12.73
2019-05-03T00:07:02.694Z,12.10
2019-05-03T00:09:32.012Z,11.80
2019-05-03T00:12:01.880Z,12.40
2019-05-03T00:14:32.374Z,12.23
2019-05-03T00:16:59.132Z,11.70
2019-05-03T00:19:27.962Z,11.43
2019-05-03T00:21:56.805Z,10.73
2019-05-03T00:24:25.657Z,11.98
2019-05-03T00:26:54.507Z,9.90
2019-05-03T00:29:23.335Z,10.82
2019-05-03T00:31:52.904Z,9.47
2019-05-03T00:34:22.591Z,9.10
2019-05-03T00:36:52.440Z,10.13
2019-05-03T00:39:21.714Z,9.40
2019-05-03T00:41:51.986Z,9.77
2019-05-03T00:44:18.801Z,9.53
2019-05-03T00:46:47.633Z,9.60
2019-05-03T00:49:17.223Z,10.77
2019-05-03T00:51:46.055Z,10.00
2019-05-03T00:54:14.872Z,9.17
2019-05-03T00:56:44.542Z,9.07
2019-05-03T00:59:12.839Z,8.53
2019-05-03T01:01:42.511Z,8.63
2019-05-03T01:04:11.852Z,8.30
2019-05-03T01:06:39.033Z,8.23
2019-05-03T01:09:07.882Z,8.87
2019-05-03T01:11:36.725Z,8.90
2019-05-03T01:14:05.569Z,8.53
2019-05-03T01:16:34.397Z,8.13
2019-05-03T01:19:03.974Z,8.47
2019-05-03T01:21:32.804Z,9.40
2019-05-03T01:24:01.770Z,8.93
2019-05-03T01:26:31.941Z,9.13
2019-05-03T01:29:00.057Z,8.53
2019-05-03T01:31:28.914Z,8.93
2019-05-03T01:33:57.730Z,8.80
2019-05-03T01:36:26.578Z,8.43
2019-05-03T01:38:55.421Z,9.88
2019-05-03T01:41:24.263Z,8.23
2019-05-03T01:43:53.100Z,8.53
2019-05-03T01:46:22.801Z,9.75
2019-05-03T01:48:52.221Z,9.27
2019-05-03T01:51:19.601Z,8.80
2019-05-03T01:53:48.458Z,9.77
2019-05-03T01:56:17.297Z,9.20
2019-05-03T01:58:46.129Z,8.93
2019-05-03T02:01:18.869Z,9.60
2019-05-03T02:03:52.269Z,9.13
2019-05-03T02:06:19.410Z,9.40
2019-05-03T02:08:48.254Z,10.43
2019-05-03T02:11:17.842Z,9.50
2019-05-03T02:13:46.693Z,10.30
2019-05-03T02:16:15.524Z,8.60
2019-05-03T02:18:44.367Z,9.47
2019-05-03T02:21:13.204Z,10.27
2019-05-03T02:23:42.720Z,9.87
2019-05-03T02:26:11.758Z,9.30
2019-05-03T02:28:42.022Z,9.88
2019-05-03T02:31:09.890Z,8.90
2019-05-03T02:33:38.722Z,9.57
2019-05-03T02:36:07.546Z,9.63
2019-05-03T02:38:36.390Z,9.57
2019-05-03T02:41:05.225Z,9.90
2019-05-03T02:43:36.375Z,9.37
2019-05-03T02:46:05.821Z,9.80
2019-05-03T02:48:36.212Z,10.33
2019-05-03T02:51:02.313Z,10.63
2019-05-03T02:53:31.138Z,11.70
2019-05-03T02:56:13.969Z,11.57
2019-05-03T02:58:28.838Z,12.95
2019-05-03T03:00:58.589Z,11.80
2019-05-03T03:03:27.433Z,10.80
2019-05-03T03:05:57.018Z,11.30
2019-05-03T03:08:26.799Z,11.30
2019-05-03T03:10:58.222Z,11.80
2019-05-03T03:13:27.076Z,10.60
2019-05-03T03:15:55.942Z,9.83
2019-05-03T03:18:25.560Z,10.00
2019-05-03T03:20:55.264Z,10.90
2019-05-03T03:23:26.109Z,10.80
2019-05-03T03:25:52.073Z,11.52
2019-05-03T03:28:20.924Z,11.82
2019-05-03T03:33:33.482Z,12.40
2019-05-03T03:36:31.551Z,10.70
2019-05-03T03:38:31.140Z,10.37
2019-05-03T03:41:00.730Z,10.93
2019-05-03T03:43:29.569Z,10.83
2019-05-03T03:45:58.420Z,10.93
2019-05-03T03:48:27.842Z,10.60
2019-05-03T03:50:56.680Z,10.37
2019-05-03T03:53:26.388Z,10.57
2019-05-03T03:55:56.435Z,10.80
2019-05-03T03:58:23.381Z,10.20
2019-05-03T04:00:55.346Z,10.63
2019-05-03T04:03:21.628Z,10.87
2019-05-03T04:05:50.463Z,11.30
2019-05-03T04:08:20.067Z,10.77
2019-05-03T04:10:48.905Z,10.43
2019-05-03T04:13:17.752Z,12.23
2019-05-03T04:15:55.950Z,11.13
2019-05-03T04:18:25.592Z,11.80
2019-05-03T04:20:55.746Z,11.83
2019-05-03T04:23:22.334Z,11.18
2019-05-03T04:25:51.179Z,9.40
2019-05-03T04:28:20.038Z,10.47
2019-05-03T04:30:48.873Z,11.37
2019-05-03T04:33:17.732Z,10.37
2019-05-03T04:35:46.712Z,10.77
2019-05-03T04:38:16.187Z,10.70
2019-05-03T04:40:45.405Z,10.03
2019-05-03T04:43:13.136Z,10.03
2019-05-03T04:45:41.989Z,10.30
2019-05-03T04:48:10.820Z,9.60
2019-05-03T04:50:39.660Z,9.27
2019-05-03T04:53:08.507Z,10.33
2019-05-03T04:55:38.077Z,8.93
2019-05-03T04:58:06.937Z,7.00
2019-05-03T05:00:36.115Z,7.55
2019-05-03T05:03:05.895Z,5.20
2019-05-03T05:05:36.333Z,4.73
2019-05-03T05:08:05.900Z,5.87
2019-05-03T05:10:36.013Z,6.27
2019-05-03T05:13:02.201Z,4.23
2019-05-03T05:15:31.029Z,5.43
2019-05-03T05:18:01.848Z,3.90
2019-05-03T05:20:30.666Z,4.80
2019-05-03T05:22:59.523Z,3.77
2019-05-03T05:25:28.358Z,4.32
2019-05-03T05:27:58.842Z,3.50
2019-05-03T05:30:27.685Z,4.80
2019-05-03T05:32:56.530Z,3.30
2019-05-03T05:35:25.366Z,5.25
2019-05-03T05:37:54.956Z,4.73
2019-05-03T05:40:24.546Z,4.37
2019-05-03T05:42:54.507Z,4.27
2019-05-03T05:45:21.490Z,5.63
2019-05-03T05:47:50.334Z,5.30
2019-05-03T05:50:21.936Z,5.43
2019-05-03T05:52:50.768Z,5.37
2019-05-03T05:55:19.607Z,5.00
2019-05-03T05:58:03.021Z,6.10
2019-05-03T06:00:25.755Z,8.30
2019-05-03T06:02:52.720Z,6.63
2019-05-03T06:05:21.564Z,6.47
2019-05-03T06:07:51.154Z,6.47
2019-05-03T06:10:20.611Z,7.20
2019-05-03T06:12:49.572Z,7.20
2019-05-03T06:15:25.041Z,7.20
2019-05-03T06:17:52.867Z,7.68
2019-05-03T06:20:21.726Z,6.97
2019-05-03T06:22:50.635Z,7.53
2019-05-03T06:25:20.200Z,7.13
2019-05-03T06:27:49.028Z,8.07
2019-05-03T06:30:19.769Z,7.10
2019-05-03T06:32:48.607Z,7.20
2019-05-03T06:35:17.472Z,7.10
2019-05-03T06:37:46.316Z,7.37
2019-05-03T06:40:15.169Z,7.77
2019-05-03T06:42:52.484Z,7.57
2019-05-03T06:45:14.707Z,7.07
2019-05-03T06:47:46.076Z,7.83
2019-05-03T06:50:11.288Z,7.83
2019-05-03T06:52:40.129Z,8.57
2019-05-03T06:55:10.717Z,8.50
2019-05-03T06:57:40.094Z,8.10
2019-05-03T07:00:08.538Z,8.40
2019-05-03T07:02:38.285Z,7.87
2019-05-03T07:05:08.061Z,8.27
2019-05-03T07:07:41.576Z,7.73
2019-05-03T07:10:10.420Z,7.83
2019-05-03T07:12:45.581Z,7.23
2019-05-03T07:15:14.530Z,7.90
2019-05-03T07:17:45.014Z,8.07
2019-05-03T07:20:12.114Z,8.27
2019-05-03T07:22:40.949Z,7.80
2019-05-03T07:25:09.805Z,9.60
2019-05-03T07:27:38.636Z,9.67
2019-05-03T07:30:07.483Z,8.10
2019-05-03T07:32:36.390Z,8.13
2019-05-03T07:35:05.186Z,8.43
2019-05-03T07:37:34.874Z,7.57
2019-05-03T07:40:04.715Z,7.97
2019-05-03T07:42:31.834Z,7.93
2019-05-03T07:45:00.640Z,8.20
2019-05-03T07:47:29.497Z,8.23
2019-05-03T07:49:59.104Z,8.97
2019-05-03T07:52:27.963Z,8.93
2019-05-03T07:54:56.814Z,7.67
2019-05-03T07:57:25.698Z,8.10
2019-05-03T07:59:55.656Z,7.87
2019-05-03T08:02:25.195Z,8.00
2019-05-03T08:04:54.806Z,8.00
2019-05-03T08:07:23.052Z,8.00
2019-05-03T08:09:50.636Z,8.90
2019-05-03T08:12:19.490Z,7.90
2019-05-03T08:14:48.331Z,8.63
2019-05-03T08:17:17.174Z,7.77
2019-05-03T08:19:46.019Z,9.25
2019-05-03T08:22:15.534Z,8.60
2019-05-03T08:24:44.815Z,8.27
2019-05-03T08:27:14.815Z,8.50
2019-05-03T08:29:42.080Z,7.43
2019-05-03T08:32:15.366Z,7.03
2019-05-03T08:34:45.214Z,8.43
2019-05-03T08:37:12.708Z,7.43
2019-05-03T08:39:41.778Z,8.40
2019-05-03T08:42:10.355Z,7.90
2019-05-03T08:44:39.205Z,9.60
2019-05-03T08:47:08.046Z,9.00
2019-05-03T08:49:36.878Z,7.30
2019-05-03T08:52:06.482Z,7.70
2019-05-03T08:54:35.302Z,7.80
2019-05-03T08:57:06.212Z,7.60
2019-05-03T08:59:33.018Z,6.70
2019-05-03T09:02:03.675Z,7.37
2019-05-03T09:04:37.316Z,7.17
2019-05-03T09:06:59.569Z,6.70
2019-05-03T09:09:34.900Z,7.97
2019-05-03T09:12:04.741Z,7.93
2019-05-03T09:14:41.590Z,7.63
2019-05-03T09:17:01.704Z,7.37
2019-05-03T09:19:30.580Z,8.00
2019-05-03T09:21:59.379Z,7.97
2019-05-03T09:24:28.225Z,8.27
2019-05-03T09:26:57.078Z,6.50
2019-05-03T09:29:25.920Z,6.70
2019-05-03T09:31:55.447Z,6.67
2019-05-03T09:34:25.548Z,7.40
2019-05-03T09:36:52.451Z,7.00
2019-05-03T09:39:22.020Z,6.90
2019-05-03T09:41:50.912Z,7.75
2019-05-03T09:44:19.751Z,7.83
2019-05-03T09:46:48.626Z,7.50
2019-05-03T09:49:18.211Z,7.20
2019-05-03T09:51:47.058Z,6.43
2019-05-03T09:54:16.651Z,7.20
2019-05-03T09:56:55.947Z,5.67
2019-05-03T09:59:19.911Z,6.47
2019-05-03T10:01:49.328Z,6.57
2019-05-03T10:04:18.229Z,5.73
2019-05-03T10:06:47.017Z,5.43
2019-05-03T10:09:16.623Z,6.03
2019-05-03T10:11:46.445Z,6.57
2019-05-03T10:14:15.816Z,5.43
2019-05-03T10:16:46.525Z,8.17
2019-05-03T10:19:16.257Z,6.33
2019-05-03T10:21:44.980Z,5.50
2019-05-03T10:24:15.230Z,6.37
2019-05-03T10:26:42.630Z,5.10
2019-05-03T10:29:11.940Z,5.40
2019-05-03T10:31:42.269Z,4.83
2019-05-03T10:34:11.833Z,7.17
2019-05-03T10:36:40.680Z,4.77
2019-05-03T10:39:09.538Z,5.20
2019-05-03T10:41:38.387Z,4.13
2019-05-03T10:44:07.242Z,4.37
2019-05-03T10:46:36.820Z,4.80
2019-05-03T10:49:05.860Z,5.53
2019-05-03T10:51:35.950Z,4.40
2019-05-03T10:54:05.097Z,4.20
2019-05-03T10:56:37.326Z,4.65
2019-05-03T10:59:06.394Z,4.57
2019-05-03T11:01:35.898Z,4.77
2019-05-03T11:04:05.285Z,5.25
2019-05-03T11:06:33.558Z,5.13
2019-05-03T11:09:02.098Z,4.63
2019-05-03T11:11:30.924Z,4.23
2019-05-03T11:13:59.758Z,3.87
2019-05-03T11:16:29.351Z,6.40
2019-05-03T11:18:58.227Z,4.17
2019-05-03T11:21:30.304Z,5.80
2019-05-03T11:23:55.938Z,5.40
2019-05-03T11:26:25.252Z,6.07
2019-05-03T11:28:59.260Z,4.40
2019-05-03T11:31:27.992Z,5.60
2019-05-03T11:33:56.835Z,4.67
2019-05-03T11:36:31.838Z,4.40
2019-05-03T11:39:01.119Z,4.27
2019-05-03T11:41:32.698Z,4.10
2019-05-03T11:43:58.838Z,3.60
2019-05-03T11:46:27.714Z,3.17
2019-05-03T11:48:57.318Z,3.73
2019-05-03T11:51:26.157Z,3.63
2019-05-03T11:53:54.989Z,3.23
2019-05-03T11:56:24.985Z,3.53
2019-05-03T11:58:55.005Z,3.43
2019-05-03T12:01:22.267Z,3.60
2019-05-03T12:03:51.864Z,4.37
2019-05-03T12:06:20.713Z,3.80
2019-05-03T12:08:49.552Z,4.00
2019-05-03T12:11:18.407Z,4.97
2019-05-03T12:13:47.238Z,3.30
2019-05-03T12:16:23.599Z,4.97
2019-05-03T12:18:53.059Z,3.70
2019-05-03T12:21:17.624Z,2.60
2019-05-03T14:05:00.133Z,3.60
2019-05-03T14:07:29.028Z,5.07
2019-05-03T14:09:57.864Z,3.90
2019-05-03T14:12:26.722Z,4.10
2019-05-03T14:14:56.393Z,4.30
2019-05-03T14:17:25.261Z,4.80
2019-05-03T14:19:54.513Z,4.47
2019-05-03T14:22:22.237Z,4.93
2019-05-03T14:24:51.065Z,4.40
2019-05-03T14:27:19.911Z,4.50
2019-05-03T14:29:49.500Z,5.03
2019-05-03T14:32:25.661Z,5.47
2019-05-03T14:34:47.185Z,5.50
2019-05-03T14:37:16.051Z,4.80
2019-05-03T14:39:46.859Z,4.20
2019-05-03T14:42:15.300Z,7.33
2019-05-03T14:44:42.601Z,5.10
2019-05-03T14:47:11.489Z,4.90
2019-05-03T14:49:40.299Z,5.13
2019-05-03T14:52:09.165Z,5.87
2019-05-03T14:54:38.009Z,4.60
2019-05-03T14:57:10.394Z,5.23
2019-05-03T14:59:40.141Z,5.13
2019-05-03T15:02:09.898Z,5.20
2019-05-03T15:04:38.736Z,6.80
2019-05-03T15:07:07.595Z,5.43
2019-05-03T15:09:37.193Z,5.50
2019-05-03T15:12:06.820Z,6.93
2019-05-03T15:14:36.225Z,5.60
2019-05-03T15:17:05.440Z,5.33
2019-05-03T15:19:34.960Z,5.73
2019-05-03T15:22:02.777Z,5.45
2019-05-03T15:24:34.463Z,5.13
2019-05-03T15:27:01.969Z,6.67
2019-05-03T15:29:31.411Z,5.82
2019-05-03T15:32:00.279Z,5.00
2019-05-03T15:34:29.878Z,5.07
2019-05-03T15:36:59.461Z,6.62
2019-05-03T15:39:28.349Z,6.70
2019-05-03T15:41:57.173Z,5.00
2019-05-03T15:44:29.553Z,4.63
2019-05-03T15:47:02.390Z,3.03
2019-05-03T15:49:31.199Z,3.37
2019-05-03T15:52:00.029Z,3.33
2019-05-03T15:54:28.875Z,3.10
2019-05-03T15:56:57.957Z,3.33
2019-05-03T15:59:26.783Z,4.70
2019-05-03T16:01:56.380Z,5.33
2019-05-03T16:04:25.231Z,7.00
2019-05-03T16:06:55.442Z,4.47
2019-05-03T16:09:24.498Z,3.20
2019-05-03T16:11:51.785Z,2.70
2019-05-03T16:14:20.629Z,2.70
2019-05-03T16:16:50.207Z,2.63
2019-05-03T16:19:19.043Z,2.40
2019-05-03T16:21:47.883Z,2.40
2019-05-03T16:24:16.720Z,2.43
2019-05-03T16:26:51.112Z,2.60
2019-05-03T16:29:19.969Z,3.33
2019-05-03T16:31:48.819Z,5.23
2019-05-03T16:34:17.655Z,3.53
2019-05-03T16:36:46.485Z,4.23
2019-05-03T16:39:15.459Z,4.87
2019-05-03T16:41:44.733Z,3.93
2019-05-03T16:44:14.624Z,4.57
2019-05-03T16:46:42.663Z,4.97
2019-05-03T16:49:11.506Z,4.33
2019-05-03T16:51:40.346Z,4.40
2019-05-03T16:54:09.197Z,3.43
2019-05-03T16:56:38.087Z,4.37
2019-05-03T16:59:06.897Z,4.27
2019-05-03T17:01:36.477Z,4.80
2019-05-03T17:04:10.938Z,4.87
2019-05-03T17:06:40.404Z,3.03
2019-05-03T17:09:09.227Z,3.53
2019-05-03T17:11:38.068Z,4.13
2019-05-03T17:14:06.930Z,4.67
2019-05-03T17:16:35.779Z,3.33
2019-05-03T17:19:05.875Z,2.57
2019-05-03T17:21:34.968Z,3.37
2019-05-03T17:24:04.344Z,3.13
2019-05-03T17:26:31.945Z,3.37
2019-05-03T17:29:00.796Z,3.60
2019-05-03T17:31:29.629Z,5.27
2019-05-03T17:33:58.457Z,3.53
2019-05-03T17:36:27.308Z,4.27
2019-05-03T17:38:56.162Z,4.43
2019-05-03T17:41:30.468Z,3.40
2019-05-03T17:43:59.305Z,3.07
2019-05-03T17:46:28.890Z,2.70
2019-05-03T17:48:57.736Z,2.90
2019-05-03T17:51:32.171Z,2.60
2019-05-03T17:54:01.766Z,3.13
2019-05-03T17:56:30.673Z,4.60
2019-05-03T17:58:59.513Z,3.47
2019-05-03T18:01:31.243Z,3.10
2019-05-03T18:04:09.124Z,2.97
2019-05-03T18:06:34.791Z,3.10
2019-05-03T18:09:05.199Z,4.13
2019-05-03T18:11:39.707Z,4.00
2019-05-03T18:14:08.527Z,4.72
2019-05-03T18:16:38.115Z,5.20
2019-05-03T18:19:07.712Z,4.47
2019-05-03T18:21:37.293Z,4.57
2019-05-03T18:24:06.129Z,4.70
2019-05-03T18:26:35.550Z,4.80
2019-05-03T18:29:05.640Z,4.57
2019-05-03T18:31:32.676Z,3.80
2019-05-03T18:34:02.111Z,3.93
2019-05-03T18:36:32.336Z,4.57
2019-05-03T18:38:59.872Z,3.73
2019-05-03T18:41:28.693Z,3.70
2019-05-03T18:44:01.326Z,3.80
2019-05-03T18:46:30.928Z,4.90
2019-05-03T18:48:59.786Z,3.90
2019-05-03T18:51:28.643Z,4.30
2019-05-03T18:53:57.485Z,4.30
2019-05-03T18:56:26.356Z,3.93
2019-05-03T18:58:55.250Z,4.20
2019-05-03T19:01:25.283Z,3.77
2019-05-03T19:03:52.995Z,4.33
2019-05-03T19:06:21.848Z,4.13
2019-05-03T19:08:54.215Z,3.90
2019-05-03T19:11:26.217Z,3.50
2019-05-03T19:13:56.613Z,5.13
2019-05-03T19:16:30.440Z,4.70
2019-05-03T19:18:59.854Z,3.80
2019-05-03T19:21:28.713Z,4.20
2019-05-03T19:23:57.626Z,4.33
2019-05-03T19:26:26.478Z,4.97
2019-05-03T19:28:55.316Z,4.10
2019-05-03T19:31:25.152Z,4.17
2019-05-03T19:33:54.953Z,4.63
2019-05-03T19:36:21.870Z,5.67
2019-05-03T19:38:50.726Z,4.47
2019-05-03T19:41:19.579Z,5.53
2019-05-03T19:43:48.416Z,7.60
2019-05-03T19:46:17.279Z,7.40
2019-05-03T19:48:46.124Z,8.73
2019-05-03T19:51:14.983Z,8.00
2019-05-03T19:53:49.248Z,5.90
2019-05-03T19:56:18.094Z,6.10
2019-05-03T19:58:46.952Z,4.90
2019-05-03T20:01:18.714Z,4.73
2019-05-03T20:03:47.554Z,5.50
2019-05-03T20:06:17.202Z,5.73
2019-05-03T20:08:46.820Z,5.57
2019-05-03T20:11:15.636Z,7.27
2019-05-03T20:13:45.118Z,7.37
2019-05-03T20:16:15.430Z,9.03
2019-05-03T20:18:45.052Z,8.67
2019-05-03T20:21:35.001Z,8.18
2019-05-03T20:24:05.579Z,8.37
2019-05-03T20:26:34.611Z,8.87
2019-05-03T20:29:01.569Z,6.60
2019-05-03T20:31:30.421Z,5.57
2019-05-03T20:34:00.075Z,5.80
2019-05-03T20:36:28.913Z,5.43
2019-05-03T20:38:58.517Z,5.47
2019-05-03T20:41:28.102Z,6.12
2019-05-03T20:43:56.955Z,5.30
2019-05-03T20:46:28.408Z,5.73
2019-05-03T20:48:57.293Z,5.47
2019-05-03T20:51:26.150Z,5.20
2019-05-03T20:53:55.369Z,5.63
2019-05-03T20:56:24.624Z,6.33
2019-05-03T20:58:54.991Z,5.90
2019-05-03T21:01:22.353Z,6.28
2019-05-03T21:03:51.199Z,6.00
2019-05-03T21:06:32.055Z,5.70
2019-05-03T21:08:52.934Z,5.80
2019-05-03T21:11:17.769Z,5.63
2019-05-03T21:13:46.627Z,5.93
2019-05-03T21:16:21.330Z,6.62
2019-05-03T21:18:53.904Z,5.60
2019-05-03T21:21:24.890Z,5.73
2019-05-03T21:23:52.461Z,5.60
2019-05-03T21:26:21.352Z,5.17
2019-05-03T21:28:50.185Z,5.90
2019-05-03T21:31:19.018Z,6.77
2019-05-03T21:33:47.864Z,6.30
2019-05-03T21:36:16.709Z,6.60
2019-05-03T21:38:45.547Z,6.07
2019-05-03T21:41:15.635Z,6.77
2019-05-03T21:43:55.630Z,7.17
2019-05-03T21:46:25.539Z,6.23
2019-05-03T21:48:56.921Z,6.13
2019-05-03T21:51:25.751Z,6.30
2019-05-03T21:53:54.624Z,7.37
2019-05-03T21:56:26.726Z,6.13
2019-05-03T21:58:55.570Z,6.43
2019-05-03T22:01:25.909Z,6.30
2019-05-03T22:03:54.007Z,6.70
2019-05-03T22:06:24.698Z,7.75
2019-05-03T22:08:51.714Z,7.13
2019-05-03T22:11:20.562Z,6.97
2019-05-03T22:13:49.412Z,6.10
2019-05-03T22:16:20.126Z,6.57
2019-05-03T22:18:48.964Z,7.35
2019-05-03T22:21:18.559Z,6.33
2019-05-03T22:23:54.900Z,6.80
2019-05-03T22:26:21.869Z,7.20
2019-05-03T22:28:51.454Z,6.63
2019-05-03T22:31:20.320Z,6.80
2019-05-03T22:33:49.166Z,7.82
2019-05-03T22:36:18.010Z,6.97
2019-05-03T22:38:46.865Z,7.53
2019-05-03T22:41:15.712Z,8.37
2019-05-03T22:43:45.658Z,6.87
2019-05-03T22:46:14.546Z,7.45
2019-05-03T22:48:44.954Z,7.17
2019-05-03T22:51:11.814Z,6.83
2019-05-03T22:53:40.664Z,7.07
2019-05-03T22:56:09.510Z,6.23
2019-05-03T22:58:38.360Z,6.63
2019-05-03T23:01:07.938Z,7.10
2019-05-03T23:03:38.640Z,7.33
2019-05-03T23:06:19.344Z,7.40
2019-05-03T23:08:37.108Z,6.13
2019-05-03T23:11:06.678Z,6.13
2019-05-03T23:13:35.532Z,6.60
2019-05-03T23:16:05.146Z,7.43
2019-05-03T23:18:34.999Z,6.80
2019-05-03T23:21:04.718Z,6.80
2019-05-03T23:23:39.645Z,6.07
2019-05-03T23:26:08.524Z,6.53
2019-05-03T23:28:37.344Z,6.70
2019-05-03T23:31:06.197Z,6.70
2019-05-03T23:33:35.049Z,6.17
2019-05-03T23:36:04.583Z,6.82
2019-05-03T23:38:32.708Z,6.57
2019-05-03T23:41:01.570Z,6.50
2019-05-03T23:43:30.404Z,6.37
2019-05-03T23:45:59.270Z,6.83
2019-05-03T23:48:28.130Z,6.43
2019-05-03T23:50:56.966Z,7.37
2019-05-03T23:53:25.799Z,7.37
2019-05-03T23:55:55.298Z,7.03
2019-05-03T23:58:24.662Z,6.87
